Time;durP1;ratioP1;P1;durP2;ratioP2;P2;SDS_P1;SDS_P2;PMS_P1;PMS_P2;Temp;Humidity;BMP_temperature;BMP_pressure;BME280_temperature;BME280_humidity;BME280_pressure;Samples;Min_cycle;Max_cycle;Signal;HPM_P1;HPM_P2
2021/04/29 00:01:17;;;;;;;2.40;1.90;;;;;;;12.97;93.81;94962.56;5060652;28;20291;-69
2021/04/29 00:03:44;;;;;;;4.18;2.20;;;;;;;13.00;93.13;94955.00;5060981;28;20211;-69
2021/04/29 00:06:11;;;;;;;2.35;2.05;;;;;;;12.90;94.25;94948.63;5059931;28;20208;-69
2021/04/29 00:08:37;;;;;;;3.75;2.10;;;;;;;12.85;94.22;94948.44;5060316;28;20285;-69
2021/04/29 00:11:06;;;;;;;3.30;2.13;;;;;;;12.82;94.46;94948.91;5060690;28;20224;-69
2021/04/29 00:13:32;;;;;;;2.67;1.92;;;;;;;12.87;93.74;94941.16;5060715;28;20201;-69
2021/04/29 00:15:58;;;;;;;4.63;2.15;;;;;;;12.81;94.03;94948.06;5059205;28;20257;-69
2021/04/29 00:18:25;;;;;;;3.95;2.00;;;;;;;12.74;94.41;94945.75;5060237;28;20231;-69
2021/04/29 00:20:55;;;;;;;2.70;1.92;;;;;;;12.74;94.37;94943.09;5061113;28;20196;-69
2021/04/29 00:23:21;;;;;;;2.67;1.80;;;;;;;12.65;94.96;94939.94;5060578;28;20204;-69
2021/04/29 00:25:47;;;;;;;2.70;1.55;;;;;;;12.64;94.90;94935.69;5058422;28;20204;-69
2021/04/29 00:28:13;;;;;;;2.33;1.60;;;;;;;12.69;94.80;94948.22;5060474;28;20665;-69
2021/04/29 00:30:39;;;;;;;4.68;1.70;;;;;;;12.62;94.83;94948.31;5060078;28;21127;-69
2021/04/29 00:33:05;;;;;;;2.88;1.60;;;;;;;12.52;95.45;94950.66;5060050;28;20831;-69
2021/04/29 00:35:32;;;;;;;1.25;1.15;;;;;;;12.52;95.77;94947.22;5059473;28;20258;-69
2021/04/29 00:37:58;;;;;;;3.55;1.30;;;;;;;12.53;95.73;94954.13;5057023;28;20720;-69
2021/04/29 00:40:24;;;;;;;1.65;1.30;;;;;;;12.57;95.37;94957.94;5059596;28;20235;-69
2021/04/29 00:42:50;;;;;;;1.93;1.20;;;;;;;12.62;94.97;94958.88;5060252;28;20204;-69
2021/04/29 00:45:16;;;;;;;1.90;1.30;;;;;;;12.66;94.94;94960.06;5058499;28;20265;-69
2021/04/29 00:47:42;;;;;;;1.20;1.07;;;;;;;12.62;95.41;94960.72;5059098;28;20224;-69
2021/04/29 00:50:11;;;;;;;1.55;0.93;;;;;;;12.57;95.80;94961.38;5059330;28;20204;-69
2021/04/29 00:52:39;;;;;;;2.45;1.00;;;;;;;12.54;96.47;94964.47;5059837;28;20220;-69
2021/04/29 00:55:06;;;;;;;1.40;1.10;;;;;;;12.55;96.13;94963.44;5059108;28;20220;-69
2021/04/29 00:57:32;;;;;;;1.67;0.90;;;;;;;12.51;96.39;94967.53;5059771;28;20222;-69
2021/04/29 00:59:59;;;;;;;1.37;1.13;;;;;;;12.49;96.85;94961.66;5059614;28;20200;-69
2021/04/29 01:02:27;;;;;;;1.95;1.00;;;;;;;12.42;97.68;94962.75;5060021;28;20212;-69
2021/04/29 01:04:58;;;;;;;1.48;0.95;;;;;;;12.46;98.00;94954.19;5059162;28;20208;-69
2021/04/29 01:07:28;;;;;;;1.40;0.98;;;;;;;12.45;98.57;94949.91;5058809;28;20204;-69
2021/04/29 01:10:01;;;;;;;1.80;0.87;;;;;;;12.48;98.33;94960.03;5059099;28;20219;-69
2021/04/29 01:12:33;;;;;;;1.42;0.80;;;;;;;12.51;98.22;94956.97;5058415;28;20224;-69
2021/04/29 01:14:59;;;;;;;1.30;0.90;;;;;;;12.51;98.39;94958.78;5058903;28;20212;-69
2021/04/29 01:17:26;;;;;;;1.05;0.80;;;;;;;12.57;97.73;94961.38;5058536;28;20205;-69
2021/04/29 01:19:57;;;;;;;1.38;0.77;;;;;;;12.58;98.10;94965.63;5058884;28;20209;-69
2021/04/29 01:22:23;;;;;;;1.10;0.80;;;;;;;12.61;98.01;94977.59;5058509;28;20201;-69
2021/04/29 01:24:56;;;;;;;1.70;0.80;;;;;;;12.50;99.14;94971.22;5058370;28;20208;-69
2021/04/29 01:27:23;;;;;;;1.13;0.70;;;;;;;12.48;99.39;94975.91;5056926;28;20682;-69
2021/04/29 01:29:51;;;;;;;0.73;0.70;;;;;;;12.46;99.52;94972.69;5058379;28;20196;-69
2021/04/29 01:32:18;;;;;;;0.93;0.70;;;;;;;12.50;99.41;94975.66;5058781;28;20235;-69
2021/04/29 01:34:44;;;;;;;1.57;0.73;;;;;;;12.48;99.71;94975.91;5058668;28;20208;-69
2021/04/29 01:37:10;;;;;;;1.73;0.70;;;;;;;12.48;99.53;94975.91;5057002;28;20226;-69
2021/04/29 01:39:37;;;;;;;2.20;0.97;;;;;;;12.42;99.95;94968.88;5055915;28;20239;-69
2021/04/29 01:42:05;;;;;;;1.07;0.77;;;;;;;12.40;100.00;94976.19;5057845;28;21007;-69
2021/04/29 01:44:33;;;;;;;2.03;0.83;;;;;;;12.45;100.00;94968.41;5057586;28;20242;-69
2021/04/29 01:47:01;;;;;;;1.03;0.83;;;;;;;12.42;100.00;94968.03;5056377;28;20250;-69
2021/04/29 01:49:27;;;;;;;1.67;0.90;;;;;;;12.41;100.00;94972.53;5058213;28;20220;-69
2021/04/29 01:51:53;;;;;;;1.50;0.87;;;;;;;12.36;100.00;94972.38;5058557;28;20278;-69
2021/04/29 01:54:21;;;;;;;1.63;0.90;;;;;;;12.38;100.00;94972.94;5057923;28;20204;-69
2021/04/29 01:56:49;;;;;;;1.77;0.80;;;;;;;12.45;100.00;94972.91;5056905;28;20215;-69
2021/04/29 01:59:15;;;;;;;1.23;0.95;;;;;;;12.40;100.00;94980.66;5057573;28;20232;-69
2021/04/29 02:01:44;;;;;;;1.20;0.93;;;;;;;12.49;100.00;94968.78;5057840;28;20211;-69
2021/04/29 02:04:11;;;;;;;1.35;1.00;;;;;;;12.45;100.00;94973.69;5057534;28;20209;-69
2021/04/29 02:06:38;;;;;;;2.75;1.10;;;;;;;12.45;100.00;94978.97;5056399;28;20654;-69
2021/04/29 02:09:04;;;;;;;1.92;1.15;;;;;;;12.38;100.00;94972.94;5057659;28;20228;-69
2021/04/29 02:11:33;;;;;;;1.63;1.10;;;;;;;12.37;100.00;94975.81;5057666;28;20220;-69
2021/04/29 02:14:01;;;;;;;3.25;1.20;;;;;;;12.41;100.00;94982.25;5057254;28;20243;-69
2021/04/29 02:16:33;;;;;;;2.97;1.37;;;;;;;12.35;100.00;94977.88;5056950;28;20200;-69
2021/04/29 02:19:02;;;;;;;1.47;1.20;;;;;;;12.29;100.00;94984.81;5057651;28;20228;-69
2021/04/29 02:21:30;;;;;;;3.00;1.30;;;;;;;12.30;100.00;94973.22;5057539;28;20246;-69
2021/04/29 02:23:56;;;;;;;1.93;1.40;;;;;;;12.29;100.00;94984.81;5056845;28;20595;-69
2021/04/29 02:26:24;;;;;;;2.83;1.88;;;;;;;12.29;100.00;94986.66;5056236;28;20270;-69
2021/04/29 02:28:51;;;;;;;2.60;1.50;;;;;;;12.26;100.00;94985.25;5056435;28;20227;-69
2021/04/29 02:31:18;;;;;;;2.00;1.60;;;;;;;12.25;100.00;94986.28;5056848;28;20229;-69
2021/04/29 02:33:44;;;;;;;2.20;1.80;;;;;;;12.17;100.00;94978.63;5056831;28;20197;-69
2021/04/29 02:36:11;;;;;;;2.57;1.77;;;;;;;12.20;100.00;94974.75;5056697;28;20215;-69
2021/04/29 02:38:39;;;;;;;2.00;1.60;;;;;;;12.21;100.00;94982.44;5053522;28;20224;-69
2021/04/29 02:41:06;;;;;;;2.00;1.80;;;;;;;12.20;100.00;94980.84;5056843;28;21146;-69
2021/04/29 02:43:33;;;;;;;2.20;1.77;;;;;;;12.21;100.00;94981.66;5056666;28;20207;-69
2021/04/29 02:45:59;;;;;;;2.03;1.80;;;;;;;12.22;100.00;94994.63;5052198;28;20235;-69
2021/04/29 02:48:26;;;;;;;3.75;1.73;;;;;;;12.21;100.00;94993.00;5056815;28;20314;-69
2021/04/29 02:50:52;;;;;;;2.67;1.70;;;;;;;12.25;100.00;94993.41;5057533;28;20228;-69
2021/04/29 02:53:20;;;;;;;2.30;1.80;;;;;;;12.24;100.00;94995.25;5057109;28;20200;-69
2021/04/29 02:55:48;;;;;;;2.17;1.50;;;;;;;12.23;100.00;94990.16;5056243;28;20208;-69
2021/04/29 02:58:16;;;;;;;2.27;1.83;;;;;;;12.21;100.00;94993.00;5057024;28;20917;-69
2021/04/29 03:00:44;;;;;;;2.53;1.83;;;;;;;12.21;100.00;94987.72;5056484;28;20206;-69
2021/04/29 03:03:10;;;;;;;1.90;1.63;;;;;;;12.22;100.00;94997.28;5056630;28;20205;-69
2021/04/29 03:05:37;;;;;;;2.30;1.60;;;;;;;12.21;100.00;95000.94;5056296;28;20211;-69
2021/04/29 03:08:04;;;;;;;2.17;1.70;;;;;;;12.20;100.00;95007.25;5057129;28;20757;-69
2021/04/29 03:10:31;;;;;;;1.90;1.80;;;;;;;12.16;100.00;95006.06;5056474;28;20208;-69
2021/04/29 03:12:57;;;;;;;4.20;1.63;;;;;;;12.14;100.00;94998.56;5061492;28;20208;-69
2021/04/29 03:15:24;;;;;;;3.07;1.77;;;;;;;12.14;100.00;94999.38;5060308;28;20204;-69
2021/04/29 03:17:50;;;;;;;2.43;1.80;;;;;;;12.16;100.00;95008.69;5060484;28;20231;-69
2021/04/29 03:20:16;;;;;;;2.27;1.87;;;;;;;12.15;100.00;95002.84;5060917;28;20201;-69
2021/04/29 03:22:42;;;;;;;2.43;1.40;;;;;;;12.15;100.00;95008.13;5060967;28;20207;-69
2021/04/29 03:25:09;;;;;;;1.50;1.40;;;;;;;12.12;100.00;95019.09;5059762;28;20204;-69
2021/04/29 03:27:36;;;;;;;2.50;1.50;;;;;;;12.12;100.00;95009.38;5060376;28;20864;-69
2021/04/29 03:30:03;;;;;;;2.17;1.50;;;;;;;12.17;100.00;95017.44;5060953;28;20200;-69
2021/04/29 03:32:29;;;;;;;2.67;1.70;;;;;;;12.11;100.00;95028.84;5060632;28;20229;-69
2021/04/29 03:34:55;;;;;;;2.03;1.27;;;;;;;12.12;100.00;95014.63;5060230;28;20656;-69
2021/04/29 03:37:21;;;;;;;1.50;1.27;;;;;;;12.12;100.00;95027.84;5059584;28;20207;-69
2021/04/29 03:39:47;;;;;;;1.73;1.50;;;;;;;12.10;100.00;95032.53;5057829;28;20224;-69
2021/04/29 03:42:13;;;;;;;2.00;1.20;;;;;;;12.08;100.00;95031.13;5060301;28;20201;-69
2021/04/29 03:44:40;;;;;;;2.50;1.50;;;;;;;12.10;100.00;95039.66;5060878;28;20562;-69
2021/04/29 03:47:07;;;;;;;1.50;1.30;;;;;;;12.13;100.00;95041.84;5059357;28;20204;-69
2021/04/29 03:49:34;;;;;;;2.87;1.20;;;;;;;12.10;100.00;95031.72;5060263;28;20220;-69
2021/04/29 03:52:01;;;;;;;1.77;1.37;;;;;;;12.09;100.00;95036.19;5060706;28;20644;-69
2021/04/29 03:54:27;;;;;;;1.23;1.08;;;;;;;12.00;100.00;95042.75;5059825;28;20206;-69
2021/04/29 03:56:54;;;;;;;2.23;1.40;;;;;;;12.03;100.00;95044.16;5059115;28;20216;-69
2021/04/29 03:59:20;;;;;;;2.10;1.40;;;;;;;11.95;100.00;95052.34;5060944;28;20231;-69
2021/04/29 04:01:47;;;;;;;1.73;1.47;;;;;;;12.01;100.00;95056.78;5059974;28;20207;-69
2021/04/29 04:04:13;;;;;;;1.43;1.20;;;;;;;11.97;100.00;95064.31;5060583;28;20686;-69
2021/04/29 04:06:39;;;;;;;1.67;1.35;;;;;;;11.96;100.00;95067.16;5058995;28;20299;-69
2021/04/29 04:09:05;;;;;;;2.53;0.90;;;;;;;11.99;100.00;95066.72;5060228;28;20766;-69
2021/04/29 04:11:31;;;;;;;1.73;1.40;;;;;;;11.94;100.00;95063.91;5059362;28;20729;-69
2021/04/29 04:13:57;;;;;;;2.40;1.17;;;;;;;11.96;100.00;95057.41;5059828;28;20205;-69
2021/04/29 04:16:23;;;;;;;0.87;0.83;;;;;;;11.93;100.00;95059.69;5059015;28;20296;-69
2021/04/29 04:18:50;;;;;;;3.63;1.40;;;;;;;11.93;100.00;95067.59;5059081;28;20816;-69
2021/04/29 04:21:16;;;;;;;2.50;1.23;;;;;;;11.93;100.00;95068.38;5059609;28;20220;-69
2021/04/29 04:23:42;;;;;;;2.50;1.30;;;;;;;11.90;100.00;95073.28;5058714;28;20624;-69
2021/04/29 04:26:08;;;;;;;2.10;1.37;;;;;;;11.93;100.00;95067.59;5058515;28;20633;-68
2021/04/29 04:28:34;;;;;;;3.47;1.10;;;;;;;11.95;100.00;95078.72;5059315;28;20281;-69
2021/04/29 04:31:00;;;;;;;3.00;1.30;;;;;;;11.88;100.00;95080.63;5059976;28;20248;-68
2021/04/29 04:33:26;;;;;;;1.60;1.47;;;;;;;11.91;100.00;95080.97;5059698;28;20204;-68
2021/04/29 04:35:52;;;;;;;3.57;1.50;;;;;;;11.94;100.00;95085.03;5058257;28;20219;-69
2021/04/29 04:38:18;;;;;;;3.47;1.63;;;;;;;11.93;100.00;95084.22;5054707;28;20228;-69
2021/04/29 04:40:45;;;;;;;2.23;1.40;;;;;;;11.98;100.00;95096.81;5059086;28;20287;-69
2021/04/29 04:43:11;;;;;;;2.00;1.40;;;;;;;12.00;100.00;95107.94;5058237;28;20204;-68
2021/04/29 04:45:37;;;;;;;3.38;1.60;;;;;;;11.92;100.00;95121.41;5058519;28;20204;-69
2021/04/29 04:48:04;;;;;;;1.20;1.03;;;;;;;11.90;100.00;95111.06;5058304;28;21159;-69
2021/04/29 04:50:30;;;;;;;2.50;1.17;;;;;;;11.90;100.00;95126.06;5058206;28;20201;-69
2021/04/29 04:52:57;;;;;;;2.87;1.30;;;;;;;11.91;100.00;95119.78;5057995;28;20227;-69
2021/04/29 04:55:23;;;;;;;1.90;1.40;;;;;;;11.93;100.00;95130.94;5057874;28;20212;-68
2021/04/29 04:57:49;;;;;;;4.97;1.60;;;;;;;11.93;100.00;95141.50;5058137;28;20232;-69
2021/04/29 05:00:16;;;;;;;3.63;1.50;;;;;;;11.95;100.00;95139.44;5058694;28;20689;-68
2021/04/29 05:02:42;;;;;;;3.10;1.00;;;;;;;11.95;100.00;95150.84;5058248;28;20607;-68
2021/04/29 05:05:09;;;;;;;3.70;1.50;;;;;;;11.93;100.00;95158.16;5057703;28;20600;-69
2021/04/29 05:07:35;;;;;;;4.03;1.23;;;;;;;11.91;100.00;95160.16;5057441;28;20215;-68
2021/04/29 05:10:02;;;;;;;3.93;1.50;;;;;;;11.91;100.00;95162.00;5058335;28;20216;-68
2021/04/29 05:12:28;;;;;;;2.40;1.43;;;;;;;11.88;100.00;95173.81;5058538;28;20220;-69
2021/04/29 05:14:54;;;;;;;2.70;1.80;;;;;;;11.91;100.00;95176.00;5057445;28;20678;-69
2021/04/29 05:17:21;;;;;;;1.50;1.30;;;;;;;11.95;100.00;95177.25;5057072;28;20295;-69
2021/04/29 05:19:47;;;;;;;5.73;1.67;;;;;;;11.86;100.00;95180.31;5058382;28;20225;-69
2021/04/29 05:22:14;;;;;;;3.30;1.47;;;;;;;11.85;98.10;95187.44;5057657;28;20212;-69
2021/04/29 05:24:40;;;;;;;3.13;1.10;;;;;;;11.89;92.85;95187.78;5057388;28;20868;-68
2021/04/29 05:27:07;;;;;;;4.80;1.57;;;;;;;11.92;92.47;95195.31;5057671;28;20200;-69
2021/04/29 05:29:33;;;;;;;2.23;1.23;;;;;;;11.91;91.39;95201.59;5057154;28;20231;-68
2021/04/29 05:31:59;;;;;;;3.17;1.17;;;;;;;11.89;91.73;95199.19;5057530;28;20754;-68
2021/04/29 05:34:25;;;;;;;3.53;1.33;;;;;;;11.88;92.58;95207.31;5057310;28;20693;-69
2021/04/29 05:36:51;;;;;;;2.87;1.53;;;;;;;11.86;92.78;95206.69;5056784;28;21273;-68
2021/04/29 05:39:17;;;;;;;3.53;1.60;;;;;;;11.88;91.65;95204.69;5053165;28;20228;-69
2021/04/29 05:41:43;;;;;;;2.60;1.50;;;;;;;11.81;90.56;95207.34;5057692;28;20200;-69
2021/04/29 05:44:10;;;;;;;4.73;1.60;;;;;;;11.84;89.78;95211.41;5057093;28;20254;-68
2021/04/29 05:46:36;;;;;;;3.67;1.63;;;;;;;11.83;90.13;95213.22;5056280;28;20208;-69
2021/04/29 05:49:03;;;;;;;3.80;1.60;;;;;;;11.83;89.13;95215.06;5057917;28;20225;-68
2021/04/29 05:51:29;;;;;;;2.80;1.67;;;;;;;11.74;87.40;95213.66;5056857;28;20237;-69
2021/04/29 05:53:55;;;;;;;3.77;1.70;;;;;;;11.70;87.58;95226.47;5056912;28;20204;-69
2021/04/29 05:56:21;;;;;;;2.63;1.83;;;;;;;11.69;88.41;95224.84;5056877;28;20200;-69
2021/04/29 05:58:47;;;;;;;7.80;3.70;;;;;;;11.68;87.66;95225.03;5057268;28;20224;-69
2021/04/29 06:01:14;;;;;;;4.90;1.83;;;;;;;11.61;87.57;95227.69;5056583;28;20200;-68
2021/04/29 06:03:40;;;;;;;3.07;1.87;;;;;;;11.67;87.50;95233.97;5057218;28;20211;-69
2021/04/29 06:06:06;;;;;;;4.77;2.07;;;;;;;11.74;86.73;95247.97;5056270;28;20212;-69
2021/04/29 06:08:32;;;;;;;4.00;1.90;;;;;;;11.80;86.51;95240.03;5056835;28;20216;-69
2021/04/29 06:10:58;;;;;;;5.13;2.00;;;;;;;11.86;85.13;95231.28;5056634;28;20216;-69
2021/04/29 06:13:24;;;;;;;3.33;2.07;;;;;;;11.88;84.74;95228.44;5057133;28;20617;-68
2021/04/29 06:15:50;;;;;;;3.67;2.03;;;;;;;11.95;85.59;95234.50;5056242;28;20205;-69
2021/04/29 06:18:17;;;;;;;6.70;2.17;;;;;;;11.98;84.92;95239.38;5056951;28;20301;-69
2021/04/29 06:20:43;;;;;;;2.40;2.00;;;;;;;11.97;84.21;95233.25;5056559;28;20285;-69
2021/04/29 06:23:09;;;;;;;4.47;2.13;;;;;;;12.02;83.41;95230.81;5056989;28;20201;-69
2021/04/29 06:25:35;;;;;;;4.97;2.70;;;;;;;11.96;84.00;95241.41;5055959;28;21050;-69
2021/04/29 06:28:01;;;;;;;2.93;2.20;;;;;;;12.01;83.23;95246.84;5057090;28;20220;-69
2021/04/29 06:30:27;;;;;;;3.57;2.47;;;;;;;12.07;83.14;95248.66;5056502;28;20204;-68
2021/04/29 06:32:53;;;;;;;3.73;2.40;;;;;;;12.14;83.28;95239.69;5056500;28;20251;-69
2021/04/29 06:35:20;;;;;;;6.17;2.37;;;;;;;12.17;83.40;95253.28;5055737;28;20212;-69
2021/04/29 06:37:46;;;;;;;4.63;2.42;;;;;;;12.29;83.54;95248.94;5053211;28;20277;-69
2021/04/29 06:40:14;;;;;;;4.67;2.80;;;;;;;12.45;82.78;95259.03;5056667;28;20200;-69
2021/04/29 06:42:40;;;;;;;4.10;2.90;;;;;;;12.37;82.51;95267.22;5056644;28;20250;-69
2021/04/29 06:45:07;;;;;;;4.80;2.70;;;;;;;12.35;82.12;95269.25;5056309;28;20213;-69
2021/04/29 06:47:33;;;;;;;8.40;2.90;;;;;;;12.26;83.51;95261.78;5060268;28;20200;-69
2021/04/29 06:49:59;;;;;;;6.60;2.80;;;;;;;12.37;83.15;95276.94;5061248;28;20200;-69
2021/04/29 06:52:26;;;;;;;4.85;2.70;;;;;;;12.40;83.63;95284.47;5060311;28;20224;-69
2021/04/29 06:54:52;;;;;;;6.27;2.13;;;;;;;12.38;84.52;95286.50;5060203;28;20204;-69
2021/04/29 06:57:18;;;;;;;8.57;3.93;;;;;;;12.44;85.95;95289.09;5060194;28;20215;-69
2021/04/29 06:59:44;;;;;;;9.90;4.17;;;;;;;12.45;86.59;95285.44;5060878;28;20228;-69
2021/04/29 07:02:10;;;;;;;7.80;3.13;;;;;;;12.47;89.54;95282.59;5059942;28;20196;-68
2021/04/29 07:04:37;;;;;;;5.97;3.50;;;;;;;12.54;93.39;95286.03;5061032;28;20261;-69
2021/04/29 07:07:04;;;;;;;7.03;2.50;;;;;;;12.58;92.89;95290.66;5059965;28;21035;-69
2021/04/29 07:09:30;;;;;;;6.82;2.97;;;;;;;12.56;92.90;95295.34;5060054;28;20223;-69
2021/04/29 07:11:56;;;;;;;5.97;2.58;;;;;;;12.41;91.72;95294.81;5059688;28;21023;-69
2021/04/29 07:14:22;;;;;;;5.00;2.55;;;;;;;12.39;93.38;95301.34;5060307;28;20258;-69
2021/04/29 07:16:49;;;;;;;10.75;3.10;;;;;;;12.50;92.41;95296.22;5059556;28;20204;-69
2021/04/29 07:19:15;;;;;;;5.15;2.80;;;;;;;12.40;92.73;95298.47;5060007;28;20224;-69
2021/04/29 07:21:41;;;;;;;9.37;2.60;;;;;;;12.45;93.60;95298.66;5060271;28;20216;-69
2021/04/29 07:24:08;;;;;;;6.22;2.97;;;;;;;12.43;93.80;95300.69;5060053;28;20212;-69
2021/04/29 07:26:35;;;;;;;5.95;2.92;;;;;;;12.39;94.19;95293.41;5059254;28;20211;-69
2021/04/29 07:29:01;;;;;;;6.37;3.00;;;;;;;12.41;94.29;95297.47;5058787;28;20235;-69
2021/04/29 07:31:27;;;;;;;5.97;2.97;;;;;;;12.49;95.18;95291.13;5059842;28;20262;-69
2021/04/29 07:33:53;;;;;;;3.33;2.47;;;;;;;12.55;93.24;95277.88;5059236;28;20279;-69
2021/04/29 07:36:19;;;;;;;5.40;2.38;;;;;;;12.56;92.14;95274.19;5059772;28;20204;-69
2021/04/29 07:38:45;;;;;;;4.67;2.87;;;;;;;12.59;93.06;95276.44;5056107;28;20235;-69
2021/04/29 07:41:12;;;;;;;6.17;3.50;;;;;;;12.78;98.30;95263.09;5059883;28;20246;-69
2021/04/29 07:43:39;;;;;;;6.95;3.53;;;;;;;12.96;92.98;95265.84;5059395;28;20313;-69
2021/04/29 07:46:05;;;;;;;6.28;3.30;;;;;;;12.81;91.57;95261.84;5059044;28;20205;-69
2021/04/29 07:48:32;;;;;;;6.05;4.05;;;;;;;12.84;90.75;95266.72;5059591;28;20213;-69
2021/04/29 07:50:58;;;;;;;6.07;3.92;;;;;;;12.85;90.68;95268.34;5059186;28;20204;-69
2021/04/29 07:53:24;;;;;;;10.02;4.30;;;;;;;12.79;91.58;95267.38;5059547;28;20208;-69
2021/04/29 07:55:50;;;;;;;6.78;4.35;;;;;;;12.67;90.75;95272.75;5059019;28;20215;-69
2021/04/29 07:58:16;;;;;;;9.57;4.23;;;;;;;12.71;91.50;95273.94;5057767;28;20228;-69
2021/04/29 08:00:43;;;;;;;8.45;4.82;;;;;;;12.83;90.61;95280.97;5059210;28;20236;-69
2021/04/29 08:03:09;;;;;;;11.33;4.10;;;;;;;12.75;89.78;95275.91;5059818;28;20208;-69
2021/04/29 08:05:35;;;;;;;7.22;3.95;;;;;;;12.79;90.75;95266.53;5058592;28;20734;-69
2021/04/29 08:08:01;;;;;;;12.88;4.10;;;;;;;12.91;89.47;95270.16;5059418;28;20267;-69
2021/04/29 08:10:27;;;;;;;8.10;4.32;;;;;;;12.91;88.68;95267.53;5059505;28;20686;-69
2021/04/29 08:12:53;;;;;;;8.90;4.63;;;;;;;13.03;88.56;95273.72;5059220;28;20224;-69
2021/04/29 08:15:19;;;;;;;7.03;4.20;;;;;;;12.91;89.01;95278.09;5058338;28;20200;-69
2021/04/29 08:17:46;;;;;;;11.27;4.63;;;;;;;12.86;89.09;95289.28;5059070;28;20229;-69
2021/04/29 08:20:14;;;;;;;10.47;4.20;;;;;;;12.96;90.63;95294.94;5059807;28;20201;-69
2021/04/29 08:22:40;;;;;;;9.43;4.57;;;;;;;13.02;87.12;95304.66;5058780;28;20727;-69
2021/04/29 08:25:07;;;;;;;7.32;4.85;;;;;;;13.13;87.95;95311.88;5057649;28;20212;-69
2021/04/29 08:27:33;;;;;;;8.73;4.65;;;;;;;13.08;87.58;95313.56;5059746;28;20207;-69
2021/04/29 08:29:59;;;;;;;7.82;4.55;;;;;;;13.05;85.49;95306.88;5058398;28;20208;-69
2021/04/29 08:32:25;;;;;;;10.57;3.97;;;;;;;12.97;82.10;95307.13;5058933;28;20235;-69
2021/04/29 08:34:51;;;;;;;10.98;4.70;;;;;;;12.86;82.86;95312.28;5058914;28;20239;-69
2021/04/29 08:37:18;;;;;;;7.22;4.38;;;;;;;12.86;81.57;95305.16;5057967;28;20787;-69
2021/04/29 08:39:44;;;;;;;8.15;4.40;;;;;;;12.95;81.66;95319.75;5055521;28;20220;-69
2021/04/29 08:42:13;;;;;;;11.93;4.65;;;;;;;13.09;82.89;95317.84;5058615;28;20228;-69
2021/04/29 08:44:39;;;;;;;12.98;4.45;;;;;;;13.12;78.64;95314.75;5058367;28;20302;-69
2021/04/29 08:47:06;;;;;;;7.32;4.43;;;;;;;13.46;77.55;95315.91;5057843;28;20224;-69
2021/04/29 08:49:32;;;;;;;8.00;4.20;;;;;;;13.58;75.53;95321.28;5059798;28;20243;-69
2021/04/29 08:51:59;;;;;;;10.45;5.03;;;;;;;13.68;76.32;95322.44;5060217;28;20228;-69
2021/04/29 08:54:26;;;;;;;12.82;4.47;;;;;;;13.53;74.77;95327.25;5060364;28;20208;-69
2021/04/29 08:56:53;;;;;;;11.95;5.65;;;;;;;13.69;76.18;95323.25;5059040;28;20205;-69
2021/04/29 08:59:19;;;;;;;10.23;5.47;;;;;;;13.80;76.73;95331.28;5060130;28;20263;-69
2021/04/29 09:01:46;;;;;;;10.80;5.32;;;;;;;13.95;73.62;95322.97;5060354;28;20204;-69
2021/04/29 09:04:15;;;;;;;7.97;4.57;;;;;;;13.76;72.13;95327.44;5060313;28;20204;-69
2021/04/29 09:06:43;;;;;;;19.15;5.60;;;;;;;13.63;73.62;95326.75;5059504;28;20307;-69
2021/04/29 09:09:11;;;;;;;9.98;5.30;;;;;;;13.92;74.15;95313.63;5060385;28;20231;-69
2021/04/29 09:11:47;;;;;;;8.40;5.43;;;;;;;13.84;71.11;95321.06;5059419;28;20231;-69
2021/04/29 09:14:13;;;;;;;11.43;5.40;;;;;;;13.69;71.33;95329.34;5057650;28;20200;-69
2021/04/29 09:16:40;;;;;;;12.70;5.03;;;;;;;13.27;70.84;95329.28;5058973;28;20204;-69
2021/04/29 09:19:17;;;;;;;9.57;5.38;;;;;;;13.20;72.83;95338.28;5059806;28;20231;-69
2021/04/29 09:21:43;;;;;;;9.13;5.50;;;;;;;13.31;73.44;95330.47;5058605;28;20678;-69
2021/04/29 09:24:10;;;;;;;12.20;5.28;;;;;;;13.04;74.49;95341.47;5058512;28;20215;-69
2021/04/29 09:26:37;;;;;;;10.85;6.13;;;;;;;13.06;75.09;95342.03;5058046;28;20207;-69
2021/04/29 09:29:08;;;;;;;8.77;5.93;;;;;;;13.03;76.36;95338.00;5058608;28;20231;-69
2021/04/29 09:31:38;;;;;;;9.50;5.22;;;;;;;13.11;76.67;95336.94;5058716;28;20220;-69
2021/04/29 09:34:05;;;;;;;13.18;6.03;;;;;;;13.28;76.68;95335.41;5059548;28;20206;-69
2021/04/29 09:36:32;;;;;;;10.43;5.60;;;;;;;13.35;76.07;95336.16;5057597;28;20204;-69
2021/04/29 09:38:59;;;;;;;10.77;5.50;;;;;;;13.25;77.00;95341.09;5055515;28;21157;-69
2021/04/29 09:41:29;;;;;;;11.93;5.32;;;;;;;13.29;77.07;95342.28;5059816;28;20212;-69
2021/04/29 09:43:56;;;;;;;13.52;5.93;;;;;;;13.27;77.83;95339.06;5059184;28;20208;-69
2021/04/29 09:46:23;;;;;;;9.43;5.60;;;;;;;13.10;78.20;95344.06;5058332;28;20289;-69
2021/04/29 09:48:50;;;;;;;11.20;5.30;;;;;;;13.18;77.82;95338.50;5058662;28;20327;-69
2021/04/29 09:51:18;;;;;;;8.80;5.25;;;;;;;13.47;77.99;95349.28;5058684;28;20212;-69
2021/04/29 09:53:47;;;;;;;8.88;5.40;;;;;;;13.76;75.97;95346.00;5058230;28;20699;-69
2021/04/29 09:56:13;;;;;;;13.80;6.10;;;;;;;13.88;75.93;95344.22;5058215;28;20200;-69
2021/04/29 09:58:46;;;;;;;10.68;5.80;;;;;;;13.84;75.21;95337.75;5058596;28;20735;-69
2021/04/29 10:01:14;;;;;;;11.18;6.15;;;;;;;13.74;75.82;95334.78;5058544;28;20209;-69
2021/04/29 10:03:41;;;;;;;9.50;5.82;;;;;;;13.44;75.75;95331.19;5058531;28;20208;-69
2021/04/29 10:06:11;;;;;;;14.20;6.72;;;;;;;13.60;75.34;95335.13;5057700;28;20201;-69
2021/04/29 10:08:37;;;;;;;11.27;6.18;;;;;;;13.51;74.24;95326.66;5057678;28;20622;-69
2021/04/29 10:11:04;;;;;;;14.57;7.90;;;;;;;13.63;73.44;95330.22;5058683;28;20220;-69
2021/04/29 10:13:32;;;;;;;10.77;6.38;;;;;;;13.82;73.04;95323.91;5058999;28;20331;-69
2021/04/29 10:15:59;;;;;;;12.38;6.28;;;;;;;13.90;72.30;95321.00;5057692;28;20219;-70
2021/04/29 10:18:26;;;;;;;13.07;6.32;;;;;;;13.74;73.29;95326.03;5058387;28;20232;-69
2021/04/29 10:20:55;;;;;;;14.32;6.25;;;;;;;13.99;73.53;95322.34;5057644;28;20242;-69
2021/04/29 10:23:22;;;;;;;14.27;7.13;;;;;;;14.11;73.52;95318.75;5057474;28;21081;-69
2021/04/29 10:25:50;;;;;;;10.65;6.28;;;;;;;14.32;72.44;95304.25;5057821;28;20242;-69
2021/04/29 10:28:27;;;;;;;14.75;6.28;;;;;;;14.19;72.59;95309.69;5058212;28;20235;-69
2021/04/29 10:30:53;;;;;;;14.38;6.70;;;;;;;14.25;74.66;95304.31;5057798;28;20208;-69
2021/04/29 10:33:21;;;;;;;9.27;6.03;;;;;;;14.47;73.42;95289.56;5057336;28;20366;-69
2021/04/29 10:35:51;;;;;;;13.70;6.70;;;;;;;14.60;71.06;95292.09;5057767;28;20204;-70
2021/04/29 10:38:28;;;;;;;10.43;6.53;;;;;;;14.28;73.50;95284.53;5053736;28;20262;-70
2021/04/29 10:40:56;;;;;;;13.10;6.82;;;;;;;14.32;71.24;95286.53;5057605;28;20211;-70
2021/04/29 10:43:34;;;;;;;11.45;6.68;;;;;;;14.48;74.09;95282.44;5058033;28;20250;-70
2021/04/29 10:46:03;;;;;;;14.88;7.60;;;;;;;14.11;72.21;95280.88;5057291;28;20564;-69
2021/04/29 10:48:32;;;;;;;14.75;7.55;;;;;;;14.09;72.29;95285.56;5057332;28;20313;-69
2021/04/29 10:51:06;;;;;;;12.27;6.97;;;;;;;14.22;72.11;95278.28;5057286;28;20204;-69
2021/04/29 10:53:34;;;;;;;11.82;6.80;;;;;;;14.35;72.11;95285.28;5057140;28;20228;-69
2021/04/29 10:56:03;;;;;;;14.63;6.47;;;;;;;14.46;70.54;95287.16;5056772;28;20225;-69
2021/04/29 10:58:29;;;;;;;14.45;7.10;;;;;;;14.46;71.41;95289.81;5057895;28;20217;-69
2021/04/29 11:01:01;;;;;;;13.43;7.45;;;;;;;14.58;70.63;95283.53;5057607;28;20250;-69
2021/04/29 11:03:29;;;;;;;13.95;7.10;;;;;;;14.68;71.03;95291.75;5057372;28;20664;-69
2021/04/29 11:06:08;;;;;;;13.13;6.80;;;;;;;14.74;69.96;95289.03;5056477;28;20816;-69
2021/04/29 11:08:37;;;;;;;12.43;7.18;;;;;;;14.85;70.92;95282.94;5056814;28;20224;-69
2021/04/29 11:11:03;;;;;;;13.05;6.93;;;;;;;14.92;69.03;95290.81;5057001;28;20276;-69
2021/04/29 11:13:29;;;;;;;14.35;7.32;;;;;;;14.70;69.10;95292.31;5057126;28;20224;-69
2021/04/29 11:15:57;;;;;;;15.68;8.15;;;;;;;14.71;69.34;95289.47;5056974;28;20204;-69
2021/04/29 11:18:23;;;;;;;15.77;8.55;;;;;;;14.71;69.70;95284.19;5057887;28;20228;-69
2021/04/29 11:20:51;;;;;;;10.18;6.65;;;;;;;14.80;69.02;95282.00;5057078;28;20201;-69
2021/04/29 11:23:19;;;;;;;10.10;6.88;;;;;;;14.73;70.05;95283.94;5058031;28;20205;-69
2021/04/29 11:25:46;;;;;;;11.40;6.97;;;;;;;14.65;69.89;95277.09;5057865;28;20278;-69
2021/04/29 11:28:12;;;;;;;14.70;7.25;;;;;;;14.88;69.78;95279.03;5058061;28;20240;-69